Aviation Digital Data Service (ADDS)

Output produced by METARs form (0621 UTC 22 October 2014)
found at http://aviationweather.gov/adds/metars/
 
KORH 220542Z 2206/2306 05006KT 2SM BR OVC002 
     FM221900 02014KT 3SM -SHRA BR OVC015 
     FM230000 02015KT 2SM SHRA BR OVC003 WS020/04045KT